createdAt,value
2018-09-04T00:02:36.613Z,4.78
2018-09-04T00:05:39.018Z,4.33
2018-09-04T00:08:40.014Z,4.35
2018-09-04T00:11:42.146Z,4.75
2018-09-04T00:14:44.219Z,4.05
2018-09-04T00:17:46.785Z,4.20
2018-09-04T00:20:47.024Z,4.03
2018-09-04T00:23:48.668Z,3.90
2018-09-04T00:26:49.501Z,3.85
2018-09-04T00:29:51.630Z,4.20
2018-09-04T00:32:53.458Z,3.80
2018-09-04T00:35:54.860Z,3.20
2018-09-04T00:38:57.303Z,3.67
2018-09-04T00:41:59.850Z,3.85
2018-09-04T00:45:01.519Z,3.65
2018-09-04T00:48:03.684Z,3.60
2018-09-04T00:51:05.862Z,3.90
2018-09-04T00:54:06.300Z,4.10
2018-09-04T00:57:07.494Z,3.40
2018-09-04T01:00:08.072Z,3.58
2018-09-04T01:03:09.074Z,3.25
2018-09-04T01:06:09.700Z,2.83
2018-09-04T01:09:10.935Z,3.42
2018-09-04T01:12:11.455Z,3.22
2018-09-04T01:15:13.034Z,3.35
2018-09-04T01:18:14.000Z,3.27
2018-09-04T01:21:17.290Z,3.27
2018-09-04T01:24:19.733Z,3.33
2018-09-04T01:27:21.958Z,3.50
2018-09-04T01:30:23.904Z,3.45
2018-09-04T01:33:25.742Z,3.25
2018-09-04T01:36:27.197Z,3.70
2018-09-04T01:39:28.722Z,3.58
2018-09-04T01:42:31.333Z,3.55
2018-09-04T01:45:33.167Z,3.22
2018-09-04T01:48:35.367Z,3.08
2018-09-04T01:51:37.138Z,3.30
2018-09-04T01:54:39.404Z,2.58
2018-09-04T01:57:39.033Z,3.12
2018-09-04T02:00:40.040Z,3.00
2018-09-04T02:03:42.541Z,2.42
2018-09-04T02:06:44.591Z,3.42
2018-09-04T02:09:45.551Z,3.35
2018-09-04T02:12:47.522Z,3.10
2018-09-04T02:15:48.362Z,2.70
2018-09-04T02:18:50.431Z,3.10
2018-09-04T02:21:52.606Z,3.12
2018-09-04T02:24:53.757Z,3.22
2018-09-04T02:27:56.030Z,2.95
2018-09-04T02:30:57.179Z,2.87
2018-09-04T02:33:58.656Z,2.80
2018-09-04T02:36:58.712Z,2.85
2018-09-04T02:40:00.603Z,3.30
2018-09-04T02:43:01.874Z,3.10
2018-09-04T02:46:02.177Z,3.30
2018-09-04T02:49:00.492Z,3.00
2018-09-04T02:51:58.478Z,2.70
2018-09-04T02:54:57.778Z,2.80
2018-09-04T02:57:55.587Z,2.72
2018-09-04T03:00:55.062Z,3.25
2018-09-04T03:03:54.811Z,2.85
2018-09-04T03:06:53.104Z,2.77
2018-09-04T03:09:51.147Z,2.83
2018-09-04T03:12:50.559Z,2.90
2018-09-04T03:15:49.484Z,2.98
2018-09-04T03:18:48.939Z,2.77
2018-09-04T03:21:46.847Z,2.33
2018-09-04T03:24:46.138Z,2.87
2018-09-04T03:27:44.331Z,2.70
2018-09-04T03:30:43.807Z,2.85
2018-09-04T03:33:42.853Z,2.77
2018-09-04T03:36:42.002Z,2.77
2018-09-04T03:39:39.923Z,2.50
2018-09-04T03:42:39.320Z,2.47
2018-09-04T03:45:38.488Z,2.60
2018-09-04T03:48:37.622Z,2.80
2018-09-04T03:51:36.592Z,2.80
2018-09-04T03:54:35.703Z,2.98
2018-09-04T03:57:33.873Z,2.42
2018-09-04T04:00:32.868Z,2.67
2018-09-04T04:03:32.172Z,2.75
2018-09-04T04:06:31.696Z,3.30
2018-09-04T04:09:30.897Z,2.40
2018-09-04T04:12:29.105Z,2.75
2018-09-04T04:15:27.253Z,2.50
2018-09-04T04:18:25.545Z,2.62
2018-09-04T04:21:23.633Z,2.60
2018-09-04T04:24:22.916Z,2.90
2018-09-04T04:27:21.906Z,3.00
2018-09-04T04:30:21.252Z,2.77
2018-09-04T04:33:20.341Z,2.47
2018-09-04T04:36:18.715Z,2.80
2018-09-04T04:39:17.925Z,3.05
2018-09-04T04:42:16.209Z,2.60
2018-09-04T04:45:15.492Z,2.72
2018-09-04T04:48:13.573Z,2.90
2018-09-04T04:51:12.785Z,2.67
2018-09-04T04:54:11.788Z,2.52
2018-09-04T04:57:09.849Z,2.98
2018-09-04T05:00:09.137Z,2.52
2018-09-04T05:03:07.126Z,2.80
2018-09-04T05:06:05.267Z,2.72
2018-09-04T05:09:04.276Z,2.77
2018-09-04T05:12:02.632Z,2.33
2018-09-04T05:15:00.498Z,2.75
2018-09-04T05:17:59.259Z,2.60
2018-09-04T05:20:56.997Z,2.70
2018-09-04T05:23:55.074Z,3.15
2018-09-04T05:26:53.861Z,2.45
2018-09-04T05:29:52.112Z,2.30
2018-09-04T05:32:56.395Z,3.12
2018-09-04T05:35:59.732Z,2.80
2018-09-04T05:38:58.348Z,2.37
2018-09-04T05:41:57.859Z,2.62
2018-09-04T05:44:57.255Z,2.65
2018-09-04T05:47:56.405Z,2.50
2018-09-04T05:50:55.448Z,2.80
2018-09-04T05:53:54.769Z,2.65
2018-09-04T05:56:53.752Z,2.72
2018-09-04T05:59:51.987Z,2.52
2018-09-04T06:02:50.993Z,3.27
2018-09-04T06:05:50.966Z,2.58
2018-09-04T06:08:50.384Z,2.80
2018-09-04T06:11:49.681Z,2.98
2018-09-04T06:14:47.587Z,2.95
2018-09-04T06:18:03.889Z,2.77
2018-09-04T06:21:02.043Z,3.02
2018-09-04T06:24:00.457Z,2.90
2018-09-04T06:26:59.698Z,2.98
2018-09-04T06:29:58.641Z,2.52
2018-09-04T06:32:56.687Z,2.90
2018-09-04T06:35:54.835Z,3.17
2018-09-04T06:38:52.794Z,3.20
2018-09-04T06:41:51.004Z,2.67
2018-09-04T06:44:50.148Z,2.98
2018-09-04T06:47:48.230Z,2.90
2018-09-04T06:50:46.289Z,2.67
2018-09-04T06:53:44.696Z,3.05
2018-09-04T06:56:42.580Z,2.75
2018-09-04T06:59:40.739Z,4.20
2018-09-04T07:02:38.609Z,3.40
2018-09-04T07:05:36.826Z,4.97
2018-09-04T07:08:35.984Z,4.75
2018-09-04T07:11:35.190Z,5.17
2018-09-04T07:14:34.303Z,4.87
2018-09-04T07:17:32.433Z,5.90
2018-09-04T07:20:30.341Z,4.90
2018-09-04T07:23:29.509Z,4.47
2018-09-04T07:26:27.399Z,4.20
2018-09-04T07:29:25.823Z,4.95
2018-09-04T07:32:24.844Z,4.42
2018-09-04T07:35:23.981Z,4.80
2018-09-04T07:38:23.046Z,3.72
2018-09-04T07:41:22.302Z,4.42
2018-09-04T07:44:20.596Z,4.40
2018-09-04T07:47:19.754Z,4.40
2018-09-04T07:50:18.888Z,3.92
2018-09-04T07:53:18.458Z,3.80
2018-09-04T07:56:16.484Z,4.00
2018-09-04T07:59:15.072Z,3.85
2018-09-04T08:02:13.952Z,4.17
2018-09-04T08:05:13.738Z,4.40
2018-09-04T08:08:11.705Z,4.15
2018-09-04T08:11:11.259Z,4.37
2018-09-04T08:14:09.265Z,4.33
2018-09-04T08:17:08.530Z,4.17
2018-09-04T08:20:06.727Z,4.55
2018-09-04T08:23:05.987Z,4.42
2018-09-04T08:26:05.810Z,3.83
2018-09-04T08:29:04.782Z,4.20
2018-09-04T08:32:02.634Z,3.98
2018-09-04T08:35:00.834Z,4.10
2018-09-04T08:38:03.774Z,4.00
2018-09-04T08:41:01.827Z,3.58
2018-09-04T08:44:00.946Z,3.87
2018-09-04T08:46:59.439Z,3.85
2018-09-04T08:49:57.496Z,3.40
2018-09-04T08:52:55.890Z,3.55
2018-09-04T08:55:55.111Z,3.70
2018-09-04T08:58:53.389Z,3.90
2018-09-04T09:01:52.587Z,3.52
2018-09-04T09:04:52.020Z,3.92
2018-09-04T09:07:50.407Z,2.90
2018-09-04T09:10:48.727Z,3.27
2018-09-04T09:13:47.040Z,3.20
2018-09-04T09:16:46.197Z,3.55
2018-09-04T09:19:45.019Z,3.60
2018-09-04T09:22:45.570Z,3.30
2018-09-04T09:25:44.707Z,3.20
2018-09-04T09:28:44.085Z,2.95
2018-09-04T09:31:42.963Z,2.83
2018-09-04T09:34:42.136Z,2.98
2018-09-04T09:37:41.179Z,3.17
2018-09-04T09:40:40.242Z,2.72
2018-09-04T09:43:38.159Z,3.00
2018-09-04T09:46:36.441Z,2.90
2018-09-04T09:49:34.598Z,3.17
2018-09-04T09:54:33.521Z,2.60
2018-09-04T09:57:02.604Z,3.47
2018-09-04T09:59:31.530Z,3.10
2018-09-04T10:02:05.502Z,2.80
2018-09-04T10:04:34.582Z,2.40
2018-09-04T10:07:03.680Z,2.70
2018-09-04T10:09:32.751Z,2.62
2018-09-04T10:12:01.739Z,3.27
2018-09-04T10:14:30.916Z,2.87
2018-09-04T10:17:00.323Z,2.83
2018-09-04T10:19:29.129Z,2.85
2018-09-04T10:21:58.130Z,2.50
2018-09-04T10:24:27.093Z,3.00
2018-09-04T10:26:56.106Z,2.60
2018-09-04T10:29:25.360Z,2.70
2018-09-04T10:31:54.470Z,3.00
2018-09-04T10:34:23.625Z,2.40
2018-09-04T10:36:52.809Z,2.27
2018-09-04T10:40:28.559Z,2.47
2018-09-04T10:42:57.614Z,2.60
2018-09-04T10:45:31.822Z,2.60
2018-09-04T10:48:00.832Z,2.45
2018-09-04T10:50:30.061Z,2.30
2018-09-04T10:52:59.065Z,2.58
2018-09-04T10:55:28.081Z,2.80
2018-09-04T10:57:57.077Z,2.60
2018-09-04T11:00:25.846Z,2.65
2018-09-04T11:02:54.953Z,2.45
2018-09-04T11:05:23.963Z,2.70
2018-09-04T11:07:53.199Z,2.50
2018-09-04T11:10:22.306Z,2.52
2018-09-04T11:12:51.532Z,2.55
2018-09-04T11:15:20.488Z,2.65
2018-09-04T11:17:49.426Z,2.42
2018-09-04T11:20:18.409Z,2.35
2018-09-04T11:22:47.424Z,2.33
2018-09-04T11:25:16.405Z,2.30
2018-09-04T11:27:45.294Z,2.80
2018-09-04T11:30:14.494Z,2.52
2018-09-04T11:32:43.560Z,2.27
2018-09-04T11:35:12.851Z,2.60
2018-09-04T11:37:41.899Z,2.40
2018-09-04T11:40:11.170Z,2.70
2018-09-04T11:42:40.134Z,3.00
2018-09-04T11:45:09.769Z,2.87
2018-09-04T11:47:40.789Z,2.67
2018-09-04T11:50:09.928Z,2.70
2018-09-04T11:52:39.250Z,2.60
2018-09-04T11:55:09.048Z,2.75
2018-09-04T11:57:38.323Z,3.00
2018-09-04T12:00:08.630Z,2.98
2018-09-04T12:02:39.203Z,2.80
2018-09-04T12:05:08.319Z,2.50
2018-09-04T12:07:37.338Z,2.65
2018-09-04T12:10:07.118Z,2.70
2018-09-04T12:12:37.556Z,3.55
2018-09-04T12:15:06.451Z,4.30
2018-09-04T12:17:35.673Z,3.62
2018-09-04T12:20:47.428Z,2.83
2018-09-04T12:23:16.561Z,3.60
2018-09-04T12:25:46.524Z,3.47
2018-09-04T12:28:15.497Z,4.00
2018-09-04T12:30:44.585Z,3.50
2018-09-04T12:33:13.525Z,3.70
2018-09-04T12:35:42.414Z,3.90
2018-09-04T12:38:13.697Z,3.60
2018-09-04T12:40:42.770Z,4.15
2018-09-04T12:43:11.953Z,4.05
2018-09-04T12:45:45.905Z,4.05
2018-09-04T12:48:32.105Z,3.62
2018-09-04T12:51:02.272Z,3.25
2018-09-04T12:53:32.293Z,3.65
2018-09-04T12:56:01.502Z,3.72
2018-09-04T12:58:31.310Z,3.70
2018-09-04T13:01:00.447Z,3.08
2018-09-04T13:03:30.021Z,3.77
2018-09-04T13:05:59.235Z,3.87
2018-09-04T13:08:30.262Z,3.22
2018-09-04T13:10:59.309Z,3.62
2018-09-04T13:13:28.536Z,3.65
2018-09-04T13:15:59.853Z,3.65
2018-09-04T13:18:29.579Z,3.85
2018-09-04T13:21:01.480Z,3.20
2018-09-04T13:23:30.844Z,3.90
2018-09-04T13:25:59.882Z,4.62
2018-09-04T13:28:29.439Z,4.70
2018-09-04T13:30:58.574Z,4.53
2018-09-04T13:33:27.579Z,4.58
2018-09-04T13:35:56.680Z,4.10
2018-09-04T13:38:25.751Z,4.17
2018-09-04T13:41:00.023Z,4.42
2018-09-04T13:43:29.036Z,4.55
2018-09-04T13:45:58.169Z,4.37
2018-09-04T13:48:28.101Z,4.10
2018-09-04T13:50:57.458Z,4.58
2018-09-04T13:53:26.858Z,4.08
2018-09-04T13:55:56.005Z,4.80
2018-09-04T13:58:25.090Z,4.47
2018-09-04T14:00:54.134Z,4.55
2018-09-04T14:03:23.143Z,4.03
2018-09-04T14:05:52.225Z,3.95
2018-09-04T14:08:21.246Z,3.70
2018-09-04T14:10:50.433Z,4.12
2018-09-04T14:13:19.446Z,4.03
2018-09-04T14:15:48.688Z,3.75
2018-09-04T14:18:18.425Z,3.92
2018-09-04T14:20:47.585Z,3.90
2018-09-04T14:23:16.590Z,3.58
2018-09-04T14:25:45.744Z,3.60
2018-09-04T14:28:40.964Z,3.90
2018-09-04T14:30:43.865Z,4.08
2018-09-04T14:33:12.954Z,3.70
2018-09-04T14:35:41.825Z,4.22
2018-09-04T14:38:10.930Z,3.10
2018-09-04T14:40:39.929Z,3.37
2018-09-04T14:43:08.946Z,3.75
2018-09-04T14:45:37.974Z,3.45
2018-09-04T14:48:06.911Z,3.27
2018-09-04T14:50:36.191Z,3.12
2018-09-04T14:53:05.162Z,3.27
2018-09-04T14:55:34.047Z,2.75
2018-09-04T14:58:03.011Z,3.60
2018-09-04T15:00:32.054Z,3.00
2018-09-04T15:03:00.907Z,3.33
2018-09-04T15:05:30.044Z,3.45
2018-09-04T15:07:59.008Z,3.33
2018-09-04T15:10:28.134Z,3.33
2018-09-04T15:12:57.027Z,3.08
2018-09-04T15:15:26.179Z,3.02
2018-09-04T15:17:55.162Z,3.17
2018-09-04T15:20:24.305Z,2.60
2018-09-04T15:22:53.172Z,3.22
2018-09-04T15:25:22.274Z,3.02
2018-09-04T15:27:51.345Z,3.08
2018-09-04T15:30:20.895Z,3.12
2018-09-04T15:32:50.212Z,3.30
2018-09-04T15:35:19.555Z,2.77
2018-09-04T15:37:48.501Z,3.42
2018-09-04T15:40:17.448Z,2.72
2018-09-04T15:42:46.614Z,2.87
2018-09-04T15:45:15.674Z,3.10
2018-09-04T15:47:44.693Z,2.67
2018-09-04T15:50:13.648Z,3.10
2018-09-04T15:52:42.772Z,2.58
2018-09-04T15:55:11.894Z,2.85
2018-09-04T15:57:41.016Z,2.90
2018-09-04T16:00:10.063Z,2.80
2018-09-04T16:02:39.181Z,2.80
2018-09-04T16:05:08.370Z,2.90
2018-09-04T16:07:37.384Z,2.70
2018-09-04T16:10:06.607Z,2.65
2018-09-04T16:12:35.550Z,3.10
2018-09-04T16:15:04.978Z,2.70
2018-09-04T16:17:34.215Z,2.75
2018-09-04T16:20:03.300Z,2.67
2018-09-04T16:22:32.316Z,2.85
2018-09-04T16:25:01.386Z,2.80
2018-09-04T16:27:30.582Z,2.77
2018-09-04T16:29:59.514Z,2.80
2018-09-04T16:32:28.421Z,2.72
2018-09-04T16:34:57.571Z,2.70
2018-09-04T16:37:26.690Z,2.65
2018-09-04T16:39:55.626Z,3.40
2018-09-04T16:42:24.755Z,2.92
2018-09-04T16:44:53.562Z,2.92
2018-09-04T16:47:22.858Z,2.87
2018-09-04T16:49:51.795Z,2.80
2018-09-04T16:52:20.901Z,3.00
2018-09-04T16:54:49.913Z,2.72
2018-09-04T16:57:18.989Z,2.60
2018-09-04T16:59:47.914Z,2.47
2018-09-04T17:02:16.953Z,2.70
2018-09-04T17:04:45.968Z,3.00
2018-09-04T17:07:15.107Z,2.70
2018-09-04T17:09:43.906Z,3.00
2018-09-04T17:12:12.889Z,3.10
2018-09-04T17:14:42.164Z,2.83
2018-09-04T17:17:11.189Z,2.80
2018-09-04T17:19:40.338Z,2.80
2018-09-04T17:22:09.293Z,2.83
2018-09-04T17:24:38.577Z,2.50
2018-09-04T17:27:07.401Z,2.62
2018-09-04T17:29:36.322Z,2.70
2018-09-04T17:32:05.827Z,2.90
2018-09-04T17:34:34.732Z,2.92
2018-09-04T17:37:04.182Z,2.92
2018-09-04T17:39:33.556Z,2.92
2018-09-04T17:42:03.057Z,3.10
2018-09-04T17:44:32.176Z,3.10
2018-09-04T17:47:01.217Z,3.42
2018-09-04T17:49:30.500Z,3.00
2018-09-04T17:51:59.564Z,3.20
2018-09-04T17:54:28.814Z,3.00
2018-09-04T17:56:58.044Z,3.08
2018-09-04T17:59:27.318Z,2.90
2018-09-04T18:01:56.376Z,2.95
2018-09-04T18:04:25.442Z,3.08
2018-09-04T18:06:54.655Z,3.30
2018-09-04T18:09:23.761Z,3.02
2018-09-04T18:11:52.856Z,3.20
2018-09-04T18:14:21.955Z,3.08
2018-09-04T18:16:51.159Z,3.25
2018-09-04T18:19:20.608Z,3.20
2018-09-04T18:21:49.981Z,3.62
2018-09-04T18:24:19.341Z,3.62
2018-09-04T18:26:48.582Z,3.58
2018-09-04T18:29:17.761Z,4.00
2018-09-04T18:31:46.841Z,4.05
2018-09-04T18:34:16.055Z,3.85
2018-09-04T18:36:45.008Z,5.08
2018-09-04T18:39:14.005Z,5.42
2018-09-04T18:41:43.078Z,5.50
2018-09-04T18:44:12.280Z,5.00
2018-09-04T18:46:41.334Z,5.12
2018-09-04T18:49:10.444Z,4.95
2018-09-04T18:51:39.582Z,5.05
2018-09-04T18:54:08.689Z,4.50
2018-09-04T18:56:37.854Z,5.37
2018-09-04T18:59:07.171Z,4.78
2018-09-04T19:01:36.154Z,4.95
2018-09-04T19:04:05.310Z,5.05
2018-09-04T19:06:34.448Z,5.03
2018-09-04T19:09:04.586Z,4.95
2018-09-04T19:11:33.548Z,5.40
2018-09-04T19:14:02.811Z,4.92
2018-09-04T19:16:32.224Z,5.25
2018-09-04T19:19:01.242Z,4.67
2018-09-04T19:21:30.163Z,4.65
2018-09-04T19:23:59.408Z,5.28
2018-09-04T19:26:28.437Z,5.03
2018-09-04T19:28:57.582Z,5.28
2018-09-04T19:31:26.633Z,5.20
2018-09-04T19:33:56.318Z,4.40
2018-09-04T19:36:25.313Z,5.15
2018-09-04T19:38:54.243Z,5.12
2018-09-04T19:41:23.341Z,4.65
2018-09-04T19:43:52.349Z,4.80
2018-09-04T19:46:21.376Z,4.83
2018-09-04T19:48:50.502Z,4.90
2018-09-04T19:51:19.522Z,4.25
2018-09-04T19:53:48.484Z,4.50
2018-09-04T19:56:17.742Z,4.30
2018-09-04T19:58:47.032Z,4.90
2018-09-04T20:01:16.023Z,4.85
2018-09-04T20:03:44.958Z,4.83
2018-09-04T20:06:14.228Z,4.90
2018-09-04T20:08:43.288Z,4.75
2018-09-04T20:11:12.464Z,4.50
2018-09-04T20:13:41.492Z,4.60
2018-09-04T20:16:10.488Z,4.67
2018-09-04T20:18:39.653Z,4.97
2018-09-04T20:21:08.689Z,4.33
2018-09-04T20:23:37.745Z,4.37
2018-09-04T20:26:07.331Z,4.70
2018-09-04T20:28:36.479Z,4.30
2018-09-04T20:31:05.686Z,4.37
2018-09-04T20:33:34.895Z,4.15
2018-09-04T20:36:04.277Z,4.40
2018-09-04T20:38:33.482Z,4.67
2018-09-04T20:41:02.787Z,4.15
2018-09-04T20:43:32.027Z,4.25
2018-09-04T20:46:01.082Z,4.33
2018-09-04T20:48:30.175Z,4.12
2018-09-04T20:50:59.255Z,4.05
2018-09-04T20:53:28.361Z,4.12
2018-09-04T20:55:57.223Z,4.53
2018-09-04T20:58:37.195Z,4.35
2018-09-04T21:01:17.266Z,3.98
2018-09-04T21:03:57.173Z,4.20
2018-09-04T21:06:37.338Z,4.37
2018-09-04T21:09:19.337Z,4.08
2018-09-04T21:11:48.532Z,4.42
2018-09-04T21:14:17.594Z,4.25
2018-09-04T21:16:46.581Z,4.30
2018-09-04T21:19:15.566Z,3.75
2018-09-04T21:21:44.493Z,3.72
2018-09-04T21:24:13.651Z,3.70
2018-09-04T21:26:42.846Z,3.55
2018-09-04T21:29:11.745Z,4.28
2018-09-04T21:31:40.819Z,3.87
2018-09-04T21:34:09.775Z,4.30
2018-09-04T21:36:38.819Z,4.78
2018-09-04T21:39:09.275Z,3.80
2018-09-04T21:41:38.463Z,3.92
2018-09-04T21:44:07.594Z,3.58
2018-09-04T21:46:36.482Z,4.25
2018-09-04T21:49:05.719Z,4.17
2018-09-04T21:51:34.629Z,3.98
2018-09-04T21:54:03.773Z,3.47
2018-09-04T21:56:33.394Z,3.42
2018-09-04T21:59:02.294Z,3.70
2018-09-04T22:01:31.040Z,4.30
2018-09-04T22:03:59.777Z,3.58
2018-09-04T22:06:28.665Z,4.03
2018-09-04T22:08:57.438Z,3.45
2018-09-04T22:11:26.259Z,4.20
2018-09-04T22:13:54.990Z,4.10
2018-09-04T22:16:23.725Z,3.80
2018-09-04T22:18:52.436Z,4.15
2018-09-04T22:21:21.221Z,3.80
2018-09-04T22:23:50.181Z,3.75
2018-09-04T22:26:19.202Z,3.08
2018-09-04T22:28:48.248Z,3.60
2018-09-04T22:31:17.251Z,3.83
2018-09-04T22:33:46.744Z,3.80
2018-09-04T22:36:15.599Z,3.95
2018-09-04T22:38:44.645Z,4.15
2018-09-04T22:41:13.358Z,3.75
2018-09-04T22:43:42.417Z,4.28
2018-09-04T22:46:11.570Z,3.42
2018-09-04T22:48:40.315Z,3.45
2018-09-04T22:51:14.330Z,3.52
2018-09-04T22:53:43.268Z,3.60
2018-09-04T22:56:12.245Z,3.72
2018-09-04T22:58:41.022Z,3.60
2018-09-04T23:01:09.791Z,3.95
2018-09-04T23:03:38.554Z,3.90
2018-09-04T23:06:07.352Z,3.77
2018-09-04T23:08:36.115Z,3.65
2018-09-04T23:11:04.951Z,3.75
2018-09-04T23:13:33.919Z,3.83
2018-09-04T23:16:03.048Z,3.50
2018-09-04T23:18:32.065Z,4.10
2018-09-04T23:21:00.818Z,3.60
2018-09-04T23:23:29.782Z,3.75
2018-09-04T23:25:59.165Z,3.10
2018-09-04T23:28:28.121Z,3.77
2018-09-04T23:30:57.058Z,3.30
2018-09-04T23:33:25.832Z,3.42
2018-09-04T23:35:54.803Z,3.42
2018-09-04T23:38:24.415Z,3.37
2018-09-04T23:40:53.391Z,3.12
2018-09-04T23:43:22.641Z,3.17
2018-09-04T23:45:51.583Z,3.65
2018-09-04T23:48:20.377Z,3.67
2018-09-04T23:50:49.322Z,3.80
2018-09-04T23:53:18.082Z,3.50
2018-09-04T23:55:47.050Z,3.67
2018-09-04T23:58:16.070Z,3.85
